Time,TemperatureF,DewpointF,PressureIn,WindDirection,WindDirectionDegrees,WindSpeedMPH,WindSpeedGustMPH,Humidity,HourlyPrecipIn,Conditions,Clouds,dailyrainin,SoftwareType,DateUTC
2013-02-03 00:04:00,31.6,5.2,30.15,NW,322,2.2,4.0,32,0.00,,,0.00,VWS V12.08,2013-02-03 05:04:00,
2013-02-03 00:05:00,31.5,5.7,30.15,NNW,340,2.2,4.9,33,0.00,,,0.00,VWS V12.08,2013-02-03 05:05:00,
2013-02-03 00:06:00,31.5,5.7,30.15,North,350,3.6,4.9,33,0.00,,,0.00,VWS V12.08,2013-02-03 05:06:00,
2013-02-03 00:11:00,31.3,5.5,30.15,North,4,3.6,4.9,33,0.00,,,0.00,VWS V12.08,2013-02-03 05:11:00,
2013-02-03 00:16:00,31.1,6.0,30.15,NNE,14,2.7,4.9,34,0.00,,,0.00,VWS V12.08,2013-02-03 05:16:00,
2013-02-03 00:21:00,30.9,5.9,30.15,NNW,329,2.7,2.7,34,0.00,,,0.00,VWS V12.08,2013-02-03 05:21:00,
2013-02-03 00:32:00,30.7,5.7,30.15,North,350,0.0,4.9,34,0.00,,,0.00,VWS V12.08,2013-02-03 05:32:00,
2013-02-03 00:41:00,30.6,6.8,30.12,NNW,339,4.0,6.3,36,0.00,,,0.00,VWS V12.08,2013-02-03 05:41:00,
2013-02-03 00:46:00,30.4,6.6,30.12,NNW,327,2.7,4.9,36,0.00,,,0.00,VWS V12.08,2013-02-03 05:46:00,
2013-02-03 00:56:00,30.4,6.6,30.12,NW,310,2.2,4.9,36,0.00,,,0.00,VWS V12.08,2013-02-03 05:56:00,
2013-02-03 01:04:00,30.4,6.6,30.12,NNW,333,0.0,4.9,36,0.00,,,0.00,VWS V12.08,2013-02-03 06:04:00,
2013-02-03 01:11:00,30.4,6.6,30.12,West,276,0.0,0.0,36,0.00,,,0.00,VWS V12.08,2013-02-03 06:11:00,
2013-02-03 01:17:00,30.4,7.2,30.12,NNW,328,3.1,4.0,37,0.00,,,0.00,VWS V12.08,2013-02-03 06:17:00,
2013-02-03 01:26:00,30.2,7.7,30.12,NW,322,0.0,4.0,38,0.00,,,0.00,VWS V12.08,2013-02-03 06:26:00,
2013-02-03 01:32:00,30.0,8.1,30.12,NW,308,3.1,5.4,39,0.00,,,0.00,VWS V12.08,2013-02-03 06:32:00,
2013-02-03 01:41:00,29.7,7.8,30.12,NNW,328,2.7,5.4,39,0.00,,,0.00,VWS V12.08,2013-02-03 06:41:00,
2013-02-03 01:47:00,29.7,7.2,30.12,West,266,0.0,3.1,38,0.00,,,0.00,VWS V12.08,2013-02-03 06:47:00,
2013-02-03 01:56:00,29.7,7.2,30.12,NW,326,0.0,4.0,38,0.00,,,0.00,VWS V12.08,2013-02-03 06:56:00,
2013-02-03 02:04:00,29.7,7.2,30.12,NNW,342,2.2,4.5,38,0.00,,,0.00,VWS V12.08,2013-02-03 07:04:00,
2013-02-03 02:11:00,29.5,7.0,30.12,WNW,299,0.0,3.6,38,0.00,,,0.00,VWS V12.08,2013-02-03 07:11:00,
2013-02-03 02:17:00,29.5,7.6,30.12,NNE,24,2.2,3.6,39,0.00,,,0.00,VWS V12.08,2013-02-03 07:17:00,
2013-02-03 02:26:00,29.5,7.6,30.12,NNW,333,0.0,3.6,39,0.00,,,0.00,VWS V12.08,2013-02-03 07:26:00,
2013-02-03 02:32:00,29.1,7.8,30.12,NNW,329,0.0,3.6,40,0.00,,,0.00,VWS V12.08,2013-02-03 07:32:00,
2013-02-03 02:41:00,28.8,7.5,30.12,NNW,329,3.1,3.6,40,0.00,,,0.00,VWS V12.08,2013-02-03 07:41:00,
2013-02-03 02:47:00,28.6,7.3,30.12,NNW,327,2.2,3.6,40,0.00,,,0.00,VWS V12.08,2013-02-03 07:47:00,
2013-02-03 02:56:00,28.6,7.3,30.12,NW,315,0.0,4.0,40,0.00,,,0.00,VWS V12.08,2013-02-03 07:56:00,
2013-02-03 03:04:00,28.4,7.2,30.12,SW,230,0.0,4.0,40,0.00,,,0.00,VWS V12.08,2013-02-03 08:04:00,
2013-02-03 03:11:00,28.2,7.0,30.09,WNW,289,0.0,0.0,40,0.00,,,0.00,VWS V12.08,2013-02-03 08:11:00,
2013-02-03 03:17:00,28.2,7.0,30.09,NNW,345,0.0,0.0,40,0.00,,,0.00,VWS V12.08,2013-02-03 08:17:00,
2013-02-03 03:26:00,28.6,6.8,30.09,NW,305,0.0,0.0,39,0.00,,,0.00,VWS V12.08,2013-02-03 08:26:00,
2013-02-03 03:32:00,28.6,6.8,30.09,SW,226,0.0,0.0,39,0.00,,,0.00,VWS V12.08,2013-02-03 08:32:00,
2013-02-03 03:41:00,28.6,6.8,30.09,WNW,284,0.0,0.0,39,0.00,,,0.00,VWS V12.08,2013-02-03 08:41:00,
2013-02-03 03:47:00,28.8,7.5,30.09,NNW,337,0.0,0.0,40,0.00,,,0.00,VWS V12.08,2013-02-03 08:47:00,
2013-02-03 03:56:00,28.8,7.5,30.09,NW,325,0.0,0.0,40,0.00,,,0.00,VWS V12.08,2013-02-03 08:56:00,
2013-02-03 04:05:00,28.6,7.3,30.09,NNW,334,0.0,2.7,40,0.00,,,0.00,VWS V12.08,2013-02-03 09:05:00,
2013-02-03 04:11:00,28.6,7.3,30.09,NNW,345,0.0,0.0,40,0.00,,,0.00,VWS V12.08,2013-02-03 09:11:00,
2013-02-03 04:17:00,28.6,7.3,30.09,NNW,345,0.0,0.0,40,0.00,,,0.00,VWS V12.08,2013-02-03 09:17:00,
2013-02-03 04:26:00,28.8,7.5,30.09,NNW,345,0.0,0.0,40,0.00,,,0.00,VWS V12.08,2013-02-03 09:26:00,
2013-02-03 04:32:00,28.8,7.5,30.09,NNW,345,0.0,0.0,40,0.00,,,0.00,VWS V12.08,2013-02-03 09:32:00,
2013-02-03 04:42:00,28.9,7.7,30.06,NNW,345,0.0,0.0,40,0.00,,,0.00,VWS V12.08,2013-02-03 09:42:00,
2013-02-03 04:47:00,29.1,7.8,30.06,NNW,345,0.0,0.0,40,0.00,,,0.00,VWS V12.08,2013-02-03 09:47:00,
2013-02-03 04:56:00,29.3,8.0,30.06,NNW,345,0.0,0.0,40,0.00,,,0.00,VWS V12.08,2013-02-03 09:56:00,
2013-02-03 05:05:00,29.5,8.1,30.06,NNW,345,0.0,0.0,40,0.00,,,0.00,VWS V12.08,2013-02-03 10:05:00,
2013-02-03 05:12:00,29.7,8.3,30.06,NNW,345,0.0,0.0,40,0.00,,,0.00,VWS V12.08,2013-02-03 10:12:00,
2013-02-03 05:17:00,29.7,8.3,30.06,NNW,345,0.0,0.0,40,0.00,,,0.00,VWS V12.08,2013-02-03 10:17:00,
2013-02-03 05:27:00,29.8,8.5,30.06,NNW,345,0.0,0.0,40,0.00,,,0.00,VWS V12.08,2013-02-03 10:27:00,
2013-02-03 05:32:00,29.8,8.5,30.06,NNW,345,0.0,0.0,40,0.00,,,0.00,VWS V12.08,2013-02-03 10:32:00,
2013-02-03 05:41:00,30.0,8.6,30.06,NNW,345,0.0,0.0,40,0.00,,,0.00,VWS V12.08,2013-02-03 10:41:00,
2013-02-03 05:46:00,30.2,8.8,30.06,NNW,345,0.0,0.0,40,0.00,,,0.00,VWS V12.08,2013-02-03 10:46:00,
2013-02-03 05:56:00,30.2,8.8,30.03,NNW,345,0.0,0.0,40,0.00,,,0.00,VWS V12.08,2013-02-03 10:56:00,
2013-02-03 06:04:00,30.2,8.8,30.03,NNW,345,0.0,0.0,40,0.00,,,0.00,VWS V12.08,2013-02-03 11:04:00,
2013-02-03 06:11:00,30.0,8.6,30.03,NNW,345,0.0,0.0,40,0.00,,,0.00,VWS V12.08,2013-02-03 11:11:00,
2013-02-03 06:16:00,30.2,8.8,30.03,NNW,345,0.0,0.0,40,0.00,,,0.00,VWS V12.08,2013-02-03 11:16:00,
2013-02-03 06:26:00,30.2,8.8,30.03,NNW,345,0.0,0.0,40,0.00,,,0.00,VWS V12.08,2013-02-03 11:26:00,
2013-02-03 06:31:00,30.2,8.8,30.03,NNW,345,0.0,0.0,40,0.00,,,0.00,VWS V12.08,2013-02-03 11:31:00,
2013-02-03 06:41:00,29.5,8.1,30.03,NNW,345,0.0,0.0,40,0.00,,,0.00,VWS V12.08,2013-02-03 11:41:00,
2013-02-03 06:46:00,28.8,7.5,30.03,NNW,345,0.0,0.0,40,0.00,,,0.00,VWS V12.08,2013-02-03 11:46:00,
2013-02-03 06:56:00,28.4,7.2,30.03,NNW,345,0.0,0.0,40,0.00,,,0.00,VWS V12.08,2013-02-03 11:56:00,
2013-02-03 07:04:00,28.0,6.8,30.03,NNW,345,0.0,0.0,40,0.00,,,0.00,VWS V12.08,2013-02-03 12:04:00,
2013-02-03 07:11:00,27.7,6.5,30.03,NNW,345,0.0,0.0,40,0.00,,,0.00,VWS V12.08,2013-02-03 12:11:00,
2013-02-03 07:16:00,27.5,6.4,30.03,NNW,345,0.0,0.0,40,0.00,,,0.00,VWS V12.08,2013-02-03 12:16:00,
2013-02-03 07:26:00,27.1,6.0,30.03,NNW,345,0.0,0.0,40,0.00,,,0.00,VWS V12.08,2013-02-03 12:26:00,
2013-02-03 07:31:00,27.1,6.0,30.03,NNW,345,0.0,0.0,40,0.00,,,0.00,VWS V12.08,2013-02-03 12:31:00,
2013-02-03 07:41:00,27.5,6.4,30.06,NNW,345,0.0,0.0,40,0.00,,,0.00,VWS V12.08,2013-02-03 12:41:00,
2013-02-03 07:46:00,27.7,6.5,30.06,NNW,345,0.0,0.0,40,0.00,,,0.00,VWS V12.08,2013-02-03 12:46:00,
2013-02-03 07:56:00,27.9,7.2,30.06,NNW,345,0.0,0.0,41,0.00,,,0.00,VWS V12.08,2013-02-03 12:56:00,
2013-02-03 08:04:00,27.9,7.2,30.06,NNW,345,0.0,0.0,41,0.00,,,0.00,VWS V12.08,2013-02-03 13:04:00,
2013-02-03 08:11:00,28.2,7.6,30.06,NNW,345,0.0,0.0,41,0.00,,,0.00,VWS V12.08,2013-02-03 13:11:00,
2013-02-03 08:17:00,28.2,7.6,30.06,NNW,345,0.0,0.0,41,0.00,,,0.00,VWS V12.08,2013-02-03 13:17:00,
2013-02-03 08:26:00,28.6,7.9,30.03,NNW,345,0.0,0.0,41,0.00,,,0.00,VWS V12.08,2013-02-03 13:26:00,
2013-02-03 08:32:00,28.6,7.9,30.03,NNW,345,0.0,0.0,41,0.00,,,0.00,VWS V12.08,2013-02-03 13:32:00,
2013-02-03 08:41:00,28.9,8.2,30.03,NNW,328,0.0,2.7,41,0.00,,,0.00,VWS V12.08,2013-02-03 13:41:00,
2013-02-03 08:47:00,29.1,8.4,30.03,NNW,328,0.0,0.0,41,0.00,,,0.00,VWS V12.08,2013-02-03 13:47:00,
2013-02-03 08:56:00,29.5,8.7,30.03,North,0,0.0,3.1,41,0.00,,,0.00,VWS V12.08,2013-02-03 13:56:00,
2013-02-03 09:04:00,29.5,8.7,30.03,North,0,0.0,3.1,41,0.00,,,0.00,VWS V12.08,2013-02-03 14:04:00,
2013-02-03 09:11:00,29.8,9.0,30.03,North,0,0.0,0.0,41,0.00,,,0.00,VWS V12.08,2013-02-03 14:11:00,
2013-02-03 09:17:00,30.0,9.2,30.03,North,0,0.0,0.0,41,0.00,,,0.00,VWS V12.08,2013-02-03 14:17:00,
2013-02-03 09:26:00,30.4,9.5,30.00,North,0,3.1,3.1,41,0.00,,,0.00,VWS V12.08,2013-02-03 14:26:00,
2013-02-03 09:32:00,30.6,9.7,30.00,NNW,328,2.2,3.1,41,0.00,,,0.00,VWS V12.08,2013-02-03 14:32:00,
2013-02-03 09:41:00,30.7,9.8,30.00,NNW,328,0.0,3.1,41,0.00,,,0.00,VWS V12.08,2013-02-03 14:41:00,
2013-02-03 09:47:00,30.9,10.0,30.00,West,262,0.0,0.0,41,0.00,,,0.00,VWS V12.08,2013-02-03 14:47:00,
2013-02-03 09:56:00,31.1,10.2,30.00,NNW,332,2.7,2.7,41,0.00,,,0.00,VWS V12.08,2013-02-03 14:56:00,
2013-02-03 10:05:00,30.9,10.0,30.00,WNW,301,0.0,4.0,41,0.00,,,0.00,VWS V12.08,2013-02-03 15:05:00,
2013-02-03 10:11:00,31.1,10.2,30.00,West,268,2.2,3.1,41,0.00,,,0.00,VWS V12.08,2013-02-03 15:11:00,
2013-02-03 10:17:00,31.1,10.7,30.00,NW,310,0.0,3.1,42,0.00,,,0.00,VWS V12.08,2013-02-03 15:17:00,
2013-02-03 10:26:00,31.1,10.7,29.97,WNW,293,0.0,0.0,42,0.00,,,0.00,VWS V12.08,2013-02-03 15:26:00,
2013-02-03 10:32:00,31.3,10.9,29.97,WNW,301,2.2,4.0,42,0.00,,,0.00,VWS V12.08,2013-02-03 15:32:00,
2013-02-03 10:41:00,31.8,11.4,29.97,NW,326,2.2,4.0,42,0.00,,,0.00,VWS V12.08,2013-02-03 15:41:00,
2013-02-03 10:47:00,32.2,12.2,29.97,West,279,2.2,4.9,43,0.00,,,0.00,VWS V12.08,2013-02-03 15:47:00,
2013-02-03 10:56:00,32.5,12.5,29.94,NNW,334,2.7,4.9,43,0.00,,,0.00,VWS V12.08,2013-02-03 15:56:00,
2013-02-03 11:05:00,32.5,12.5,29.94,NW,326,2.7,4.9,43,0.00,,,0.00,VWS V12.08,2013-02-03 16:05:00,
2013-02-03 11:11:00,32.5,12.0,29.94,NNW,333,0.0,3.6,42,0.00,,,0.00,VWS V12.08,2013-02-03 16:11:00,
2013-02-03 11:17:00,32.9,12.9,29.94,NW,325,2.7,4.0,43,0.00,,,0.00,VWS V12.08,2013-02-03 16:17:00,
2013-02-03 11:26:00,33.1,13.0,29.91,NNW,334,2.2,3.6,43,0.04,,,0.04,VWS V12.08,2013-02-03 16:26:00,
2013-02-03 11:32:00,33.3,13.2,29.91,North,357,3.1,3.6,43,0.04,,,0.04,VWS V12.08,2013-02-03 16:32:00,
2013-02-03 11:41:00,33.8,13.7,29.91,North,357,2.2,4.0,43,0.04,,,0.04,VWS V12.08,2013-02-03 16:41:00,
2013-02-03 11:47:00,33.8,13.1,29.91,NNE,29,3.1,4.0,42,0.04,,,0.04,VWS V12.08,2013-02-03 16:47:00,
2013-02-03 11:56:00,34.0,13.3,29.91,West,273,0.0,4.0,42,0.04,,,0.04,VWS V12.08,2013-02-03 16:56:00,
2013-02-03 12:05:00,34.0,13.3,29.91,NNW,331,4.0,4.0,42,0.04,,,0.04,VWS V12.08,2013-02-03 17:05:00,
2013-02-03 12:12:00,33.8,13.1,29.91,WNW,295,3.1,4.0,42,0.04,,,0.04,VWS V12.08,2013-02-03 17:12:00,
2013-02-03 12:17:00,34.0,13.3,29.91,NNW,348,2.7,4.0,42,0.04,,,0.04,VWS V12.08,2013-02-03 17:17:00,
2013-02-03 12:27:00,34.3,13.6,29.88,NE,41,3.6,3.6,42,0.00,,,0.04,VWS V12.08,2013-02-03 17:27:00,
2013-02-03 12:32:00,34.2,13.5,29.88,NNW,331,3.1,3.6,42,0.00,,,0.04,VWS V12.08,2013-02-03 17:32:00,
2013-02-03 12:41:00,34.0,13.3,29.88,NW,314,3.1,3.6,42,0.00,,,0.04,VWS V12.08,2013-02-03 17:41:00,
2013-02-03 12:46:00,33.8,13.1,29.88,NW,318,3.1,4.0,42,0.00,,,0.04,VWS V12.08,2013-02-03 17:46:00,
2013-02-03 12:56:00,33.6,13.0,29.88,NW,320,0.0,4.0,42,0.00,,,0.04,VWS V12.08,2013-02-03 17:56:00,
2013-02-03 13:04:00,33.6,13.0,29.88,NE,38,0.0,4.0,42,0.00,,,0.04,VWS V12.08,2013-02-03 18:04:00,
2013-02-03 13:11:00,33.6,13.5,29.85,NNW,331,4.0,5.8,43,0.00,,,0.04,VWS V12.08,2013-02-03 18:11:00,
2013-02-03 13:16:00,33.4,13.4,29.85,North,5,2.7,5.8,43,0.00,,,0.04,VWS V12.08,2013-02-03 18:16:00,
2013-02-03 13:26:00,33.3,13.2,29.85,NW,321,2.7,4.0,43,0.00,,,0.04,VWS V12.08,2013-02-03 18:26:00,
2013-02-03 13:31:00,33.3,13.2,29.85,WNW,294,3.1,4.0,43,0.00,,,0.04,VWS V12.08,2013-02-03 18:31:00,
2013-02-03 13:41:00,33.3,13.2,29.85,North,349,0.0,4.9,43,0.00,,,0.04,VWS V12.08,2013-02-03 18:41:00,
2013-02-03 13:46:00,33.3,13.2,29.85,NNW,337,4.0,5.4,43,0.00,,,0.04,VWS V12.08,2013-02-03 18:46:00,
2013-02-03 13:56:00,33.1,13.0,29.85,NW,310,3.1,7.2,43,0.00,,,0.04,VWS V12.08,2013-02-03 18:56:00,
2013-02-03 14:04:00,33.1,13.6,29.85,SW,227,3.1,7.2,44,0.00,,,0.04,VWS V12.08,2013-02-03 19:04:00,
2013-02-03 14:11:00,33.3,13.7,29.85,WNW,298,3.6,4.0,44,0.00,,,0.04,VWS V12.08,2013-02-03 19:11:00,
2013-02-03 14:16:00,33.4,13.9,29.85,NNW,337,3.1,5.8,44,0.00,,,0.04,VWS V12.08,2013-02-03 19:16:00,
2013-02-03 14:26:00,33.4,13.9,29.83,NNW,335,0.0,7.6,44,0.00,,,0.04,VWS V12.08,2013-02-03 19:26:00,
2013-02-03 14:31:00,33.4,13.9,29.83,NNW,346,2.7,7.6,44,0.00,,,0.04,VWS V12.08,2013-02-03 19:31:00,
2013-02-03 14:41:00,33.8,14.2,29.83,NNW,342,2.7,7.6,44,0.00,,,0.04,VWS V12.08,2013-02-03 19:41:00,
2013-02-03 14:46:00,33.8,14.2,29.83,WNW,298,5.4,5.4,44,0.00,,,0.04,VWS V12.08,2013-02-03 19:46:00,
2013-02-03 14:56:00,33.6,14.1,29.83,North,353,4.0,5.8,44,0.00,,,0.04,VWS V12.08,2013-02-03 19:56:00,
2013-02-03 15:05:00,33.6,14.1,29.83,North,0,2.7,5.8,44,0.00,,,0.04,VWS V12.08,2013-02-03 20:05:00,
2013-02-03 15:11:00,33.6,14.1,29.83,NW,320,0.0,5.4,44,0.00,,,0.04,VWS V12.08,2013-02-03 20:11:00,
2013-02-03 15:17:00,33.6,14.1,29.83,NW,313,2.7,5.4,44,0.00,,,0.04,VWS V12.08,2013-02-03 20:17:00,
2013-02-03 15:26:00,33.4,13.9,29.83,NNW,337,3.1,5.8,44,0.00,,,0.04,VWS V12.08,2013-02-03 20:26:00,
2013-02-03 15:32:00,33.3,14.2,29.83,NW,326,4.0,5.8,45,0.00,,,0.04,VWS V12.08,2013-02-03 20:32:00,
2013-02-03 15:41:00,33.1,14.1,29.83,West,269,2.7,5.8,45,0.00,,,0.04,VWS V12.08,2013-02-03 20:41:00,
2013-02-03 15:47:00,33.3,14.2,29.83,NW,307,0.0,5.8,45,0.00,,,0.04,VWS V12.08,2013-02-03 20:47:00,
2013-02-03 15:56:00,33.1,14.1,29.80,NNW,327,6.3,6.3,45,0.00,,,0.04,VWS V12.08,2013-02-03 20:56:00,
2013-02-03 16:04:00,33.1,14.6,29.80,NW,310,2.7,6.3,46,0.00,,,0.04,VWS V12.08,2013-02-03 21:04:00,
2013-02-03 16:11:00,32.9,13.9,29.80,North,6,3.6,5.4,45,0.00,,,0.04,VWS V12.08,2013-02-03 21:11:00,
2013-02-03 16:17:00,32.7,13.7,29.80,West,272,2.2,5.4,45,0.00,,,0.04,VWS V12.08,2013-02-03 21:17:00,
2013-02-03 16:26:00,32.7,13.7,29.77,NNE,15,0.0,0.0,45,0.00,,,0.04,VWS V12.08,2013-02-03 21:26:00,
2013-02-03 16:32:00,32.7,13.7,29.77,North,353,0.0,0.0,45,0.00,,,0.04,VWS V12.08,2013-02-03 21:32:00,
2013-02-03 16:41:00,32.5,13.6,29.77,North,353,0.0,0.0,45,0.00,,,0.04,VWS V12.08,2013-02-03 21:41:00,
2013-02-03 16:47:00,32.7,13.7,29.77,North,353,0.0,0.0,45,0.00,,,0.04,VWS V12.08,2013-02-03 21:47:00,
2013-02-03 16:56:00,32.5,13.6,29.77,North,353,0.0,0.0,45,0.00,,,0.04,VWS V12.08,2013-02-03 21:56:00,
2013-02-03 17:04:00,32.5,13.6,29.77,North,353,0.0,0.0,45,0.00,,,0.04,VWS V12.08,2013-02-03 22:04:00,
2013-02-03 17:11:00,32.5,13.6,29.77,North,353,0.0,0.0,45,0.00,,,0.04,VWS V12.08,2013-02-03 22:11:00,
2013-02-03 17:17:00,32.5,13.6,29.77,North,353,0.0,0.0,45,0.00,,,0.04,VWS V12.08,2013-02-03 22:17:00,
2013-02-03 17:26:00,32.5,13.6,29.77,North,353,0.0,0.0,45,0.00,,,0.04,VWS V12.08,2013-02-03 22:26:00,
2013-02-03 17:32:00,32.7,13.7,29.77,North,353,0.0,0.0,45,0.00,,,0.04,VWS V12.08,2013-02-03 22:32:00,
2013-02-03 17:41:00,32.5,13.1,29.77,North,353,0.0,0.0,44,0.00,,,0.04,VWS V12.08,2013-02-03 22:41:00,
2013-02-03 17:47:00,32.5,13.6,29.77,North,353,0.0,0.0,45,0.00,,,0.04,VWS V12.08,2013-02-03 22:47:00,
2013-02-03 17:56:00,32.5,13.6,29.77,North,353,0.0,0.0,45,0.00,,,0.04,VWS V12.08,2013-02-03 22:56:00,
2013-02-03 18:05:00,32.5,13.1,29.77,North,353,0.0,0.0,44,0.00,,,0.04,VWS V12.08,2013-02-03 23:05:00,
2013-02-03 18:11:00,32.2,13.2,29.77,North,353,0.0,0.0,45,0.00,,,0.04,VWS V12.08,2013-02-03 23:11:00,
2013-02-03 18:17:00,32.2,13.2,29.77,North,353,0.0,0.0,45,0.00,,,0.04,VWS V12.08,2013-02-03 23:17:00,
2013-02-03 18:26:00,32.4,13.4,29.77,North,353,0.0,0.0,45,0.00,,,0.04,VWS V12.08,2013-02-03 23:26:00,
2013-02-03 18:32:00,32.4,13.4,29.77,North,353,0.0,0.0,45,0.00,,,0.04,VWS V12.08,2013-02-03 23:32:00,
2013-02-03 18:41:00,32.4,13.4,29.77,North,353,0.0,0.0,45,0.00,,,0.04,VWS V12.08,2013-02-03 23:41:00,
2013-02-03 18:47:00,32.4,13.4,29.77,North,353,0.0,0.0,45,0.00,,,0.04,VWS V12.08,2013-02-03 23:47:00,
2013-02-03 18:56:00,32.4,13.4,29.77,WNW,288,0.0,0.0,45,0.00,,,0.04,VWS V12.08,2013-02-03 23:56:00,
2013-02-03 19:05:00,32.5,13.6,29.77,NNW,344,0.0,4.0,45,0.00,,,0.04,VWS V12.08,2013-02-04 00:05:00,
2013-02-03 19:12:00,32.5,13.6,29.77,NNW,329,0.0,3.6,45,0.00,,,0.04,VWS V12.08,2013-02-04 00:12:00,
2013-02-03 19:17:00,32.5,13.6,29.77,NW,322,0.0,3.6,45,0.00,,,0.04,VWS V12.08,2013-02-04 00:17:00,
2013-02-03 19:27:00,32.5,13.6,29.77,WSW,257,0.0,0.0,45,0.00,,,0.04,VWS V12.08,2013-02-04 00:27:00,
2013-02-03 19:32:00,32.7,13.7,29.77,NW,306,0.0,0.0,45,0.00,,,0.04,VWS V12.08,2013-02-04 00:32:00,
2013-02-03 19:41:00,32.7,14.2,29.77,NNW,328,0.0,2.7,46,0.00,,,0.04,VWS V12.08,2013-02-04 00:41:00,
2013-02-03 19:46:00,33.1,15.1,29.77,NNW,333,2.2,3.6,47,0.00,,,0.04,VWS V12.08,2013-02-04 00:46:00,
2013-02-03 19:56:00,33.3,15.7,29.74,North,353,2.7,3.6,48,0.00,,,0.04,VWS V12.08,2013-02-04 00:56:00,
2013-02-03 20:04:00,33.4,16.4,29.74,North,3,0.0,3.6,49,0.00,,,0.04,VWS V12.08,2013-02-04 01:04:00,
2013-02-03 20:11:00,33.6,16.5,29.74,WNW,287,2.7,4.0,49,0.00,,,0.04,VWS V12.08,2013-02-04 01:11:00,
2013-02-03 20:16:00,33.6,17.0,29.74,North,353,2.2,4.0,50,0.00,,,0.04,VWS V12.08,2013-02-04 01:16:00,
2013-02-03 20:26:00,33.6,16.5,29.74,NW,307,0.0,3.6,49,0.00,,,0.04,VWS V12.08,2013-02-04 01:26:00,
2013-02-03 20:31:00,33.6,17.0,29.74,NNW,343,2.7,3.6,50,0.00,,,0.04,VWS V12.08,2013-02-04 01:31:00,
2013-02-03 20:41:00,33.6,17.0,29.74,North,0,2.2,4.0,50,0.00,,,0.04,VWS V12.08,2013-02-04 01:41:00,
2013-02-03 20:46:00,33.6,17.0,29.74,NW,322,0.0,3.6,50,0.00,,,0.04,VWS V12.08,2013-02-04 01:46:00,
2013-02-03 20:56:00,33.6,17.0,29.74,NNE,24,0.0,3.6,50,0.00,,,0.04,VWS V12.08,2013-02-04 01:56:00,
2013-02-03 21:04:00,33.6,17.0,29.74,North,3,2.7,3.6,50,0.00,,,0.04,VWS V12.08,2013-02-04 02:04:00,
2013-02-03 21:11:00,33.6,17.4,29.74,NNW,338,0.0,3.6,51,0.00,,,0.04,VWS V12.08,2013-02-04 02:11:00,
2013-02-03 21:16:00,33.6,17.4,29.74,NNW,333,3.1,3.6,51,0.00,,,0.04,VWS V12.08,2013-02-04 02:16:00,
2013-02-03 21:26:00,33.4,17.3,29.71,North,0,0.0,4.0,51,0.00,,,0.04,VWS V12.08,2013-02-04 02:26:00,
2013-02-03 21:31:00,33.4,17.3,29.71,NNW,339,2.2,4.0,51,0.00,,,0.04,VWS V12.08,2013-02-04 02:31:00,
2013-02-03 21:41:00,33.4,17.3,29.71,WNW,286,0.0,4.0,51,0.00,,,0.04,VWS V12.08,2013-02-04 02:41:00,
2013-02-03 21:46:00,33.4,17.3,29.71,NNW,340,0.0,3.6,51,0.00,,,0.04,VWS V12.08,2013-02-04 02:46:00,
2013-02-03 21:56:00,33.4,17.7,29.71,North,350,2.7,4.0,52,0.00,,,0.04,VWS V12.08,2013-02-04 02:56:00,
2013-02-03 22:04:00,33.4,17.7,29.71,North,357,2.7,4.0,52,0.00,,,0.04,VWS V12.08,2013-02-04 03:04:00,
2013-02-03 22:11:00,33.3,17.5,29.71,North,353,0.0,4.0,52,0.00,,,0.04,VWS V12.08,2013-02-04 03:11:00,
2013-02-03 22:17:00,33.3,18.0,29.71,NW,320,3.1,4.9,53,0.00,,,0.04,VWS V12.08,2013-02-04 03:17:00,
2013-02-03 22:26:00,33.1,18.3,29.71,NNW,329,2.2,4.9,54,0.00,,,0.04,VWS V12.08,2013-02-04 03:26:00,
2013-02-03 22:32:00,33.1,17.8,29.71,North,7,2.7,5.4,53,0.00,,,0.04,VWS V12.08,2013-02-04 03:32:00,
2013-02-03 22:41:00,33.1,17.8,29.71,North,353,3.6,5.4,53,0.00,,,0.04,VWS V12.08,2013-02-04 03:41:00,
2013-02-03 22:47:00,33.1,18.3,29.71,NNE,12,4.0,5.8,54,0.00,,,0.04,VWS V12.08,2013-02-04 03:47:00,
2013-02-03 22:56:00,32.9,18.1,29.71,North,357,2.7,6.3,54,0.00,,,0.04,VWS V12.08,2013-02-04 03:56:00,
2013-02-03 23:04:00,32.9,17.7,29.71,NNW,340,2.2,6.3,53,0.00,,,0.04,VWS V12.08,2013-02-04 04:04:00,
2013-02-03 23:11:00,32.7,17.5,29.74,NNW,340,3.1,5.8,53,0.00,,,0.04,VWS V12.08,2013-02-04 04:11:00,
2013-02-03 23:17:00,32.7,17.5,29.74,North,3,3.1,5.8,53,0.00,,,0.04,VWS V12.08,2013-02-04 04:17:00,
2013-02-03 23:26:00,32.5,17.3,29.74,North,357,3.1,7.2,53,0.00,,,0.04,VWS V12.08,2013-02-04 04:26:00,
2013-02-03 23:32:00,32.2,17.4,29.74,NW,325,3.6,7.2,54,0.00,,,0.04,VWS V12.08,2013-02-04 04:32:00,
2013-02-03 23:41:00,31.6,16.9,29.74,NNE,27,3.6,7.2,54,0.00,,,0.04,VWS V12.08,2013-02-04 04:41:00,
2013-02-03 23:47:00,31.5,16.8,29.74,NW,319,3.1,8.3,54,0.00,,,0.04,VWS V12.08,2013-02-04 04:47:00,
2013-02-03 23:56:00,31.1,16.4,29.74,NW,306,2.7,8.3,54,0.00,,,0.04,VWS V12.08,2013-02-04 04:56:00,